Time;durP1;ratioP1;P1;durP2;ratioP2;P2;SDS_P1;SDS_P2;PMS_P1;PMS_P2;Temp;Humidity;BMP_temperature;BMP_pressure;BME280_temperature;BME280_humidity;BME280_pressure;Samples;Min_cycle;Max_cycle;Signal;HPM_P1;HPM_P2
2021/09/10 00:00:56;;;;;;;13.35;10.00;;;19.90;76.60;;;;;;5059801;28;20186;-81
2021/09/10 00:03:27;;;;;;;12.43;9.25;;;19.90;76.70;;;;;;5008059;28;20182;-80
2021/09/10 00:05:55;;;;;;;11.68;8.95;;;19.90;76.50;;;;;;5008199;28;20675;-80
2021/09/10 00:08:22;;;;;;;12.63;9.27;;;19.90;76.70;;;;;;4991933;28;20190;-80
2021/09/10 00:10:50;;;;;;;12.35;9.45;;;19.90;76.60;;;;;;5007926;28;20192;-79
2021/09/10 00:13:17;;;;;;;11.43;8.75;;;19.90;76.90;;;;;;5007957;28;20178;-79
2021/09/10 00:15:45;;;;;;;13.00;9.82;;;19.90;76.60;;;;;;5008075;28;20236;-80
2021/09/10 00:18:10;;;;;;;12.10;9.00;;;19.90;76.90;;;;;;5007614;28;20177;-81
2021/09/10 00:20:37;;;;;;;11.80;9.10;;;19.90;77.00;;;;;;5041611;28;20609;-82
2021/09/10 00:23:05;;;;;;;12.20;9.00;;;19.90;76.70;;;;;;5007547;28;20178;-80
2021/09/10 00:25:32;;;;;;;11.93;9.07;;;19.90;76.60;;;;;;5024034;28;20184;-81
2021/09/10 00:27:59;;;;;;;12.15;9.55;;;19.90;76.80;;;;;;4991033;28;20182;-80
2021/09/10 00:30:26;;;;;;;10.70;8.38;;;19.90;76.70;;;;;;4991532;28;20186;-79
2021/09/10 00:32:56;;;;;;;12.90;9.80;;;19.90;76.70;;;;;;5007674;28;20182;-81
2021/09/10 00:35:23;;;;;;;10.98;8.40;;;19.90;76.60;;;;;;5007822;28;20213;-80
2021/09/10 00:37:50;;;;;;;12.18;9.35;;;19.90;76.60;;;;;;5007397;28;20554;-81
2021/09/10 00:40:17;;;;;;;10.98;8.90;;;19.90;76.70;;;;;;5007327;28;20576;-80
2021/09/10 00:42:44;;;;;;;13.23;9.10;;;19.90;76.50;;;;;;5006846;28;20217;-81
2021/09/10 00:45:10;;;;;;;13.77;9.95;;;19.90;76.70;;;;;;5006691;28;20263;-80
2021/09/10 00:47:40;;;;;;;10.98;9.00;;;19.90;76.60;;;;;;5058898;28;20177;-79
2021/09/10 00:50:07;;;;;;;12.35;9.32;;;19.90;76.80;;;;;;5024014;28;20189;-79
2021/09/10 00:52:33;;;;;;;14.73;9.57;;;19.90;77.20;;;;;;5002814;28;20218;-81
2021/09/10 00:55:00;;;;;;;12.63;9.05;;;19.90;77.20;;;;;;5037018;28;20155;-82
2021/09/10 00:57:27;;;;;;;12.13;9.02;;;19.90;77.10;;;;;;4987146;28;20183;-81
2021/09/10 00:59:54;;;;;;;13.43;9.70;;;19.80;76.90;;;;;;5003386;28;20183;-81
2021/09/10 01:02:20;;;;;;;13.05;9.75;;;19.80;77.20;;;;;;5003414;28;20214;-81
2021/09/10 01:04:51;;;;;;;13.80;9.32;;;19.90;77.20;;;;;;4987606;28;20221;-79
2021/09/10 01:07:18;;;;;;;13.00;9.32;;;19.90;76.80;;;;;;5003568;28;20193;-80
2021/09/10 01:09:45;;;;;;;11.80;8.93;;;19.80;76.70;;;;;;5003283;28;20186;-80
2021/09/10 01:12:17;;;;;;;11.73;9.32;;;19.80;76.90;;;;;;5003744;28;20235;-81
2021/09/10 01:14:43;;;;;;;13.07;9.35;;;19.80;76.80;;;;;;5003070;28;20175;-82
2021/09/10 01:17:10;;;;;;;11.25;8.70;;;19.80;77.10;;;;;;4987279;28;20183;-81
2021/09/10 01:19:36;;;;;;;12.45;9.48;;;19.80;77.20;;;;;;5002887;28;20190;-82
2021/09/10 01:22:05;;;;;;;12.15;9.18;;;19.80;77.20;;;;;;5036755;28;20194;-81
2021/09/10 01:24:35;;;;;;;11.85;8.82;;;19.80;77.20;;;;;;4987208;28;20186;-82
2021/09/10 01:27:01;;;;;;;12.40;8.93;;;19.90;77.00;;;;;;5036622;28;20171;-80
2021/09/10 01:29:28;;;;;;;12.48;9.25;;;19.80;77.10;;;;;;5038371;28;20609;-81
2021/09/10 01:31:58;;;;;;;12.10;9.27;;;19.80;76.90;;;;;;5020292;28;20166;-79
2021/09/10 01:34:28;;;;;;;11.73;9.27;;;19.80;76.80;;;;;;5019296;28;20709;-80
2021/09/10 01:36:57;;;;;;;12.73;9.10;;;19.80;76.80;;;;;;4987161;28;20661;-81
2021/09/10 01:39:27;;;;;;;12.20;9.25;;;19.80;76.70;;;;;;5036006;28;20274;-80
2021/09/10 01:41:53;;;;;;;12.85;9.00;;;19.80;77.00;;;;;;4986820;28;20301;-82
2021/09/10 01:44:22;;;;;;;12.52;9.10;;;19.80;77.00;;;;;;5036010;28;20183;-81
2021/09/10 01:46:49;;;;;;;11.88;8.73;;;19.80;77.00;;;;;;5002968;28;20197;-81
2021/09/10 01:49:18;;;;;;;10.88;8.63;;;19.80;77.20;;;;;;5036911;28;20162;-80
2021/09/10 01:51:45;;;;;;;10.77;8.57;;;19.90;77.10;;;;;;5003362;28;20543;-81
2021/09/10 01:54:11;;;;;;;12.52;9.05;;;19.80;77.10;;;;;;5022906;28;20583;-82
2021/09/10 01:56:37;;;;;;;12.82;9.18;;;19.80;78.50;;;;;;5039135;28;20161;-80
2021/09/10 01:59:07;;;;;;;12.43;9.20;;;19.80;77.70;;;;;;5040252;28;20166;-82
2021/09/10 02:01:35;;;;;;;11.35;8.60;;;19.80;77.40;;;;;;5005555;28;20288;-80
2021/09/10 02:04:03;;;;;;;11.93;9.10;;;19.80;78.10;;;;;;4973290;28;20178;-79
2021/09/10 02:06:31;;;;;;;12.25;8.90;;;19.80;77.30;;;;;;5006486;28;20186;-80
2021/09/10 02:08:59;;;;;;;12.70;9.15;;;19.80;77.00;;;;;;5006365;28;20235;-80
2021/09/10 02:11:26;;;;;;;12.35;9.68;;;19.80;77.00;;;;;;5006218;28;20193;-81
2021/09/10 02:13:52;;;;;;;11.63;8.90;;;19.70;77.40;;;;;;5039233;28;20158;-82
2021/09/10 02:16:18;;;;;;;13.85;9.63;;;19.80;77.40;;;;;;5039691;28;20185;-81
2021/09/10 02:18:48;;;;;;;12.25;9.10;;;19.80;77.20;;;;;;5057223;28;20613;-82
2021/09/10 02:21:15;;;;;;;12.30;9.27;;;19.80;77.20;;;;;;4989316;28;20205;-80
2021/09/10 02:23:42;;;;;;;12.13;9.18;;;19.80;77.60;;;;;;5005397;28;20186;-81
2021/09/10 02:26:12;;;;;;;11.63;9.18;;;19.80;77.10;;;;;;4989796;28;20186;-80
2021/09/10 02:28:42;;;;;;;11.23;8.63;;;19.80;77.60;;;;;;5005490;28;20189;-79
2021/09/10 02:31:10;;;;;;;12.38;9.23;;;19.80;77.20;;;;;;5005462;28;20656;-80
2021/09/10 02:33:40;;;;;;;12.10;9.23;;;19.80;77.20;;;;;;5005702;28;20276;-82
2021/09/10 02:36:05;;;;;;;12.13;8.93;;;19.80;77.20;;;;;;5005383;28;20192;-82
2021/09/10 02:38:34;;;;;;;11.90;8.52;;;19.80;77.30;;;;;;5056976;28;20629;-81
2021/09/10 02:41:03;;;;;;;12.05;9.05;;;19.80;77.30;;;;;;5005285;28;20263;-82
2021/09/10 02:43:29;;;;;;;11.63;8.82;;;19.80;77.20;;;;;;4989593;28;20232;-81
2021/09/10 02:45:55;;;;;;;12.45;8.85;;;19.80;77.30;;;;;;5057234;28;20158;-80
2021/09/10 02:48:20;;;;;;;12.52;9.38;;;19.80;77.30;;;;;;5056794;28;20210;-80
2021/09/10 02:50:48;;;;;;;10.68;8.77;;;19.80;77.60;;;;;;5039191;28;20648;-82
2021/09/10 02:53:14;;;;;;;11.38;8.88;;;19.80;77.40;;;;;;5022619;28;20217;-81
2021/09/10 02:55:40;;;;;;;11.32;8.80;;;19.80;77.30;;;;;;5039363;28;20169;-82
2021/09/10 02:58:09;;;;;;;12.23;9.02;;;19.80;77.30;;;;;;5056473;28;20154;-80
2021/09/10 03:00:39;;;;;;;12.07;9.05;;;19.80;77.20;;;;;;5005431;28;20521;-80
2021/09/10 03:03:08;;;;;;;12.20;8.82;;;19.80;77.20;;;;;;4989368;28;20185;-80
2021/09/10 03:05:37;;;;;;;12.25;9.05;;;19.80;77.10;;;;;;4972585;28;20182;-80
2021/09/10 03:08:06;;;;;;;10.85;8.90;;;19.80;77.20;;;;;;5005122;28;20178;-81
2021/09/10 03:10:37;;;;;;;12.63;8.90;;;19.80;77.30;;;;;;5005546;28;20253;-82
2021/09/10 03:13:05;;;;;;;13.05;9.48;;;19.80;77.30;;;;;;5004856;28;20655;-80
2021/09/10 03:15:34;;;;;;;12.73;8.63;;;19.70;77.00;;;;;;5006523;28;20189;-81
2021/09/10 03:18:02;;;;;;;10.85;8.73;;;19.80;77.20;;;;;;4992514;28;20181;-80
2021/09/10 03:20:31;;;;;;;10.93;8.50;;;19.80;77.20;;;;;;4992360;28;20645;-79
2021/09/10 03:23:00;;;;;;;11.10;8.90;;;19.70;77.00;;;;;;5025477;28;20320;-80
2021/09/10 03:25:28;;;;;;;11.40;8.23;;;19.80;76.90;;;;;;4992287;28;20190;-82
2021/09/10 03:27:56;;;;;;;11.13;8.68;;;19.80;77.00;;;;;;5008782;28;20182;-81
2021/09/10 03:30:24;;;;;;;11.15;8.77;;;19.80;76.90;;;;;;5009134;28;20221;-80
2021/09/10 03:32:55;;;;;;;11.55;8.90;;;19.80;76.80;;;;;;5008988;28;20185;-80
2021/09/10 03:35:26;;;;;;;12.35;9.25;;;19.80;76.90;;;;;;4992743;28;20189;-80
2021/09/10 03:37:54;;;;;;;12.10;8.65;;;19.80;76.90;;;;;;5008591;28;20263;-82
2021/09/10 03:40:22;;;;;;;11.70;8.27;;;19.80;76.80;;;;;;4992405;28;20212;-82
2021/09/10 03:42:52;;;;;;;12.07;8.52;;;19.80;76.90;;;;;;4992637;28;20669;-80
2021/09/10 03:45:20;;;;;;;12.55;8.63;;;19.80;76.90;;;;;;5010702;28;20178;-80
2021/09/10 03:47:48;;;;;;;10.65;8.43;;;19.80;76.80;;;;;;5010692;28;20188;-79
2021/09/10 03:50:15;;;;;;;11.27;8.40;;;19.80;76.70;;;;;;5012273;28;20186;-81
2021/09/10 03:52:41;;;;;;;10.88;8.65;;;19.80;76.70;;;;;;5011878;28;20225;-81
2021/09/10 03:55:09;;;;;;;11.50;8.70;;;19.80;76.60;;;;;;5045636;28;20166;-82
2021/09/10 03:57:36;;;;;;;11.68;8.48;;;19.70;76.60;;;;;;5028700;28;20640;-82
2021/09/10 04:00:04;;;;;;;10.80;8.68;;;19.80;76.60;;;;;;5012042;28;20225;-79
2021/09/10 04:02:30;;;;;;;11.32;8.52;;;19.80;76.70;;;;;;5028092;28;20270;-79
2021/09/10 04:04:55;;;;;;;12.05;8.65;;;19.80;76.50;;;;;;5062863;28;20158;-79
2021/09/10 04:07:21;;;;;;;11.57;8.48;;;19.80;76.40;;;;;;5062077;28;20154;-82
2021/09/10 04:09:46;;;;;;;10.07;7.80;;;19.80;76.60;;;;;;5044429;28;20176;-79
2021/09/10 04:12:12;;;;;;;11.55;8.50;;;19.70;76.70;;;;;;5061397;28;20169;-81
2021/09/10 04:14:38;;;;;;;12.63;8.93;;;19.80;76.80;;;;;;5060497;28;20617;-80
2021/09/10 04:17:05;;;;;;;10.85;8.32;;;19.70;76.70;;;;;;5060842;28;20170;-80
2021/09/10 04:19:32;;;;;;;11.38;8.20;;;19.70;76.70;;;;;;5011002;28;20679;-80
2021/09/10 04:21:58;;;;;;;11.40;8.48;;;19.70;76.90;;;;;;5007643;28;20248;-80
2021/09/10 04:24:25;;;;;;;10.50;7.93;;;19.70;77.00;;;;;;5008609;28;20202;-81
2021/09/10 04:26:52;;;;;;;10.32;7.88;;;19.70;76.90;;;;;;5008000;28;20189;-80
2021/09/10 04:29:19;;;;;;;10.55;8.43;;;19.70;76.60;;;;;;4991840;28;20186;-82
2021/09/10 04:31:49;;;;;;;12.05;8.35;;;19.60;76.40;;;;;;5007831;28;20186;-80
2021/09/10 04:34:15;;;;;;;9.73;7.50;;;19.70;76.10;;;;;;5008073;28;20201;-80
2021/09/10 04:36:40;;;;;;;11.52;8.15;;;19.70;76.30;;;;;;5059490;28;20165;-82
2021/09/10 04:39:08;;;;;;;9.18;7.50;;;19.70;76.50;;;;;;5059087;28;20150;-80
2021/09/10 04:41:34;;;;;;;8.75;6.97;;;19.60;76.00;;;;;;5040923;28;20231;-82
2021/09/10 04:44:00;;;;;;;9.43;7.30;;;19.70;75.70;;;;;;5058798;28;20624;-81
2021/09/10 04:46:26;;;;;;;10.00;7.20;;;19.70;75.60;;;;;;5059296;28;20703;-82
2021/09/10 04:48:56;;;;;;;8.95;7.10;;;19.70;75.50;;;;;;5059488;28;20233;-81
2021/09/10 04:51:29;;;;;;;10.00;7.10;;;19.70;75.50;;;;;;4991005;28;20190;-80
2021/09/10 04:53:57;;;;;;;10.68;7.38;;;19.70;75.40;;;;;;5008411;28;20221;-80
2021/09/10 04:56:23;;;;;;;10.40;7.38;;;19.70;75.40;;;;;;4990857;28;20190;-80
2021/09/10 04:58:49;;;;;;;9.43;7.03;;;19.70;75.50;;;;;;5024242;28;20206;-80
2021/09/10 05:01:15;;;;;;;10.15;7.35;;;19.70;75.50;;;;;;5040311;28;20195;-81
2021/09/10 05:03:40;;;;;;;8.43;6.43;;;19.70;75.60;;;;;;5041041;28;20629;-80
2021/09/10 05:06:08;;;;;;;10.27;7.70;;;19.70;75.50;;;;;;5040461;28;20621;-81
2021/09/10 05:08:34;;;;;;;9.32;7.45;;;19.70;75.50;;;;;;5058165;28;20602;-80
2021/09/10 05:10:59;;;;;;;8.60;6.65;;;19.70;75.40;;;;;;5058523;28;20192;-80
2021/09/10 05:13:25;;;;;;;9.73;7.05;;;19.70;75.50;;;;;;5039987;28;20539;-81
2021/09/10 05:15:50;;;;;;;7.97;6.28;;;19.70;75.50;;;;;;5058782;28;20621;-80
2021/09/10 05:18:16;;;;;;;8.38;6.63;;;19.70;75.60;;;;;;5040019;28;20633;-82
2021/09/10 05:20:42;;;;;;;9.25;7.20;;;19.70;75.40;;;;;;5058031;28;20590;-80
2021/09/10 05:23:08;;;;;;;8.98;6.95;;;19.70;75.40;;;;;;5040415;28;20693;-80
2021/09/10 05:25:33;;;;;;;9.05;6.70;;;19.60;75.50;;;;;;5039399;28;20189;-81
2021/09/10 05:28:03;;;;;;;8.45;6.80;;;19.70;75.40;;;;;;5057832;28;20589;-80
2021/09/10 05:30:30;;;;;;;9.73;7.10;;;19.70;75.20;;;;;;5022589;28;20206;-80
2021/09/10 05:32:57;;;;;;;9.27;7.03;;;19.70;75.50;;;;;;5006171;28;20201;-81
2021/09/10 05:35:24;;;;;;;9.30;6.70;;;19.60;75.50;;;;;;4989929;28;20181;-80
2021/09/10 05:37:54;;;;;;;9.52;7.10;;;19.60;75.40;;;;;;5005575;28;20719;-83
2021/09/10 05:40:24;;;;;;;8.60;6.82;;;19.60;75.50;;;;;;5006464;28;20549;-81
2021/09/10 05:42:51;;;;;;;8.98;7.07;;;19.70;75.50;;;;;;4990451;28;20217;-80
2021/09/10 05:45:21;;;;;;;8.45;6.70;;;19.60;75.50;;;;;;5006306;28;20186;-81
2021/09/10 05:47:48;;;;;;;8.60;6.25;;;19.60;75.50;;;;;;5005946;28;20231;-81
2021/09/10 05:50:14;;;;;;;8.10;6.60;;;19.60;75.20;;;;;;4990569;28;20178;-82
2021/09/10 05:52:40;;;;;;;8.50;6.53;;;19.60;75.40;;;;;;5005974;28;20225;-80
2021/09/10 05:55:08;;;;;;;8.45;6.68;;;19.60;75.50;;;;;;5039684;28;20237;-81
2021/09/10 05:57:36;;;;;;;8.05;6.22;;;19.60;75.50;;;;;;5023256;28;20154;-82
2021/09/10 06:00:03;;;;;;;8.95;6.65;;;19.60;75.50;;;;;;5039210;28;20162;-80
2021/09/10 06:02:29;;;;;;;7.95;6.55;;;19.60;75.40;;;;;;5023177;28;20602;-81
2021/09/10 06:04:55;;;;;;;8.80;6.75;;;19.70;75.50;;;;;;5057559;28;20162;-81
2021/09/10 06:07:24;;;;;;;7.75;6.35;;;19.60;75.50;;;;;;5058911;28;20154;-81
2021/09/10 06:09:51;;;;;;;8.27;6.05;;;19.60;75.60;;;;;;5006696;28;20189;-80
2021/09/10 06:12:18;;;;;;;9.10;7.03;;;19.60;75.60;;;;;;5006561;28;20223;-82
2021/09/10 06:14:49;;;;;;;8.65;6.13;;;19.60;75.60;;;;;;4990368;28;20192;-81
2021/09/10 06:17:19;;;;;;;9.02;6.53;;;19.60;75.50;;;;;;4990413;28;20181;-79
2021/09/10 06:19:46;;;;;;;8.25;6.10;;;19.60;75.50;;;;;;5022383;28;20204;-80
2021/09/10 06:22:13;;;;;;;8.10;6.30;;;19.60;75.70;;;;;;5040959;28;20712;-81
2021/09/10 06:24:39;;;;;;;7.93;6.25;;;19.60;75.60;;;;;;5060650;28;20192;-80
2021/09/10 06:27:06;;;;;;;8.07;5.95;;;19.50;75.80;;;;;;5040417;28;20154;-81
2021/09/10 06:29:31;;;;;;;9.45;6.43;;;19.60;75.60;;;;;;5058074;28;20184;-81
2021/09/10 06:31:57;;;;;;;8.43;6.43;;;19.60;75.50;;;;;;5042943;28;20150;-79
2021/09/10 06:34:25;;;;;;;8.07;6.35;;;19.60;75.60;;;;;;5062110;28;20213;-81
2021/09/10 06:36:50;;;;;;;7.35;5.55;;;19.60;75.60;;;;;;5044948;28;20613;-79
2021/09/10 06:39:16;;;;;;;9.13;6.22;;;19.60;75.60;;;;;;5043944;28;20162;-80
2021/09/10 06:41:45;;;;;;;8.75;6.20;;;19.60;75.70;;;;;;5063202;28;20695;-80
2021/09/10 06:44:11;;;;;;;8.80;6.07;;;19.60;75.80;;;;;;5045065;28;20159;-80
2021/09/10 06:46:41;;;;;;;8.45;6.50;;;19.60;75.80;;;;;;5044495;28;20177;-80
2021/09/10 06:49:09;;;;;;;7.78;6.20;;;19.60;75.80;;;;;;5011545;28;20218;-79
2021/09/10 06:51:37;;;;;;;7.65;6.32;;;19.60;75.90;;;;;;5011185;28;20181;-79
2021/09/10 06:54:05;;;;;;;9.45;6.28;;;19.50;75.90;;;;;;5010541;28;20230;-79
2021/09/10 06:56:31;;;;;;;8.65;6.50;;;19.60;76.10;;;;;;4994742;28;20196;-79
2021/09/10 06:58:57;;;;;;;8.85;6.70;;;19.50;76.10;;;;;;5044506;28;20174;-80
2021/09/10 07:01:22;;;;;;;9.13;6.20;;;19.60;76.10;;;;;;5027339;28;20247;-79
2021/09/10 07:03:49;;;;;;;8.65;6.80;;;19.60;76.00;;;;;;5062251;28;20208;-81
2021/09/10 07:06:16;;;;;;;8.25;5.75;;;19.60;76.00;;;;;;5043882;28;20213;-79
2021/09/10 07:08:41;;;;;;;7.82;6.00;;;19.60;76.00;;;;;;5062755;28;20208;-79
2021/09/10 07:11:08;;;;;;;7.53;5.97;;;19.60;75.90;;;;;;5062199;28;20154;-79
2021/09/10 07:13:34;;;;;;;8.60;6.28;;;19.60;75.90;;;;;;5027076;28;20162;-80
2021/09/10 07:16:00;;;;;;;8.45;6.25;;;19.50;75.90;;;;;;5025192;28;20181;-79
2021/09/10 07:18:26;;;;;;;7.95;6.25;;;19.50;76.00;;;;;;5040630;28;20621;-79
2021/09/10 07:20:52;;;;;;;7.88;5.53;;;19.60;76.00;;;;;;5059107;28;20155;-79
2021/09/10 07:23:18;;;;;;;8.02;5.90;;;19.60;75.90;;;;;;5040131;28;20168;-81
2021/09/10 07:25:46;;;;;;;8.40;5.93;;;19.60;75.80;;;;;;5058699;28;20158;-80
2021/09/10 07:28:14;;;;;;;8.00;5.90;;;19.60;75.80;;;;;;4991098;28;20228;-80
2021/09/10 07:30:42;;;;;;;8.88;6.20;;;19.60;75.90;;;;;;5006309;28;20606;-80
2021/09/10 07:33:12;;;;;;;8.90;6.60;;;19.60;76.10;;;;;;5006537;28;20174;-79
2021/09/10 07:35:42;;;;;;;8.02;6.32;;;19.50;76.10;;;;;;5006856;28;20236;-79
2021/09/10 07:38:10;;;;;;;8.45;6.20;;;19.50;76.10;;;;;;4990826;28;20221;-82
2021/09/10 07:40:40;;;;;;;8.25;6.10;;;19.50;76.30;;;;;;5007321;28;20228;-79
2021/09/10 07:43:06;;;;;;;8.25;6.15;;;19.50;76.30;;;;;;5023524;28;20213;-80
2021/09/10 07:45:31;;;;;;;8.85;6.15;;;19.50;76.40;;;;;;5058086;28;20166;-80
2021/09/10 07:47:57;;;;;;;7.75;5.93;;;19.50;76.30;;;;;;5040143;28;20641;-81
2021/09/10 07:50:23;;;;;;;8.98;6.10;;;19.60;76.40;;;;;;5057707;28;20616;-80
2021/09/10 07:52:48;;;;;;;7.90;6.20;;;19.50;76.40;;;;;;5022714;28;20233;-80
2021/09/10 07:55:14;;;;;;;7.97;6.10;;;19.50;76.50;;;;;;5057243;28;20166;-79
2021/09/10 07:57:40;;;;;;;8.00;6.22;;;19.50;76.60;;;;;;5058043;28;20166;-81
2021/09/10 08:00:06;;;;;;;8.85;6.80;;;19.50;76.50;;;;;;5058246;28;20272;-80
2021/09/10 08:02:35;;;;;;;7.50;5.90;;;19.50;76.40;;;;;;5061469;28;20400;-81
2021/09/10 08:05:02;;;;;;;8.48;6.13;;;19.50;76.40;;;;;;5043391;28;20602;-80
2021/09/10 08:07:33;;;;;;;7.53;5.95;;;19.50;76.30;;;;;;5009226;28;20645;-81
2021/09/10 08:10:03;;;;;;;7.53;5.85;;;19.50;76.40;;;;;;5008799;28;20186;-81
2021/09/10 08:12:33;;;;;;;7.38;5.70;;;19.50;76.40;;;;;;5009359;28;20318;-79
2021/09/10 08:14:59;;;;;;;7.95;5.90;;;19.50;76.50;;;;;;4976677;28;20217;-82
2021/09/10 08:17:26;;;;;;;9.30;6.55;;;19.50;76.50;;;;;;5042648;28;20158;-81
2021/09/10 08:19:51;;;;;;;6.80;5.60;;;19.50;76.50;;;;;;5042413;28;20168;-80
2021/09/10 08:22:19;;;;;;;8.13;6.05;;;19.50;76.70;;;;;;5060312;28;20185;-82
2021/09/10 08:24:47;;;;;;;7.90;6.03;;;19.50;76.70;;;;;;5025939;28;20621;-80
2021/09/10 08:27:14;;;;;;;8.32;6.50;;;19.50;76.50;;;;;;5060602;28;20152;-80
2021/09/10 08:29:39;;;;;;;7.72;6.30;;;19.50;76.50;;;;;;5060046;28;20159;-80
2021/09/10 08:32:09;;;;;;;8.60;6.88;;;19.50;76.50;;;;;;5042239;28;20169;-80
2021/09/10 08:34:39;;;;;;;7.75;6.05;;;19.50;76.60;;;;;;4993832;28;20189;-80
2021/09/10 08:37:09;;;;;;;7.80;5.85;;;19.50;76.50;;;;;;5009070;28;20548;-80
2021/09/10 08:39:39;;;;;;;8.05;6.05;;;19.50;77.40;;;;;;4993342;28;20273;-80
2021/09/10 08:42:10;;;;;;;7.95;5.57;;;19.60;76.70;;;;;;5009475;28;20218;-80
2021/09/10 08:44:42;;;;;;;7.40;5.80;;;19.50;76.70;;;;;;5026057;28;20704;-83
2021/09/10 08:47:13;;;;;;;6.93;5.65;;;19.50;76.70;;;;;;5008773;28;20213;-81
2021/09/10 08:49:45;;;;;;;8.07;6.10;;;19.50;76.60;;;;;;5024926;28;20188;-80
2021/09/10 08:52:16;;;;;;;7.65;5.97;;;19.50;76.50;;;;;;5008825;28;20178;-80
2021/09/10 08:54:46;;;;;;;9.10;6.03;;;19.50;76.70;;;;;;5005514;28;20265;-80
2021/09/10 08:57:15;;;;;;;7.38;5.85;;;19.50;76.70;;;;;;5005764;28;20214;-80
2021/09/10 08:59:45;;;;;;;7.75;5.93;;;19.60;76.80;;;;;;5005317;28;20195;-80
2021/09/10 09:02:12;;;;;;;7.25;5.78;;;19.60;76.80;;;;;;5021988;28;20632;-80
2021/09/10 09:04:38;;;;;;;9.63;6.60;;;19.50;76.70;;;;;;5021527;28;20155;-80
2021/09/10 09:07:05;;;;;;;7.82;5.93;;;19.50;76.70;;;;;;5037891;28;20163;-80
2021/09/10 09:09:45;;;;;;;8.10;5.68;;;19.50;76.60;;;;;;5039444;28;20161;-81
2021/09/10 09:12:13;;;;;;;8.02;6.68;;;19.50;76.70;;;;;;5020357;28;20221;-82
2021/09/10 09:14:52;;;;;;;8.15;5.93;;;19.50;76.80;;;;;;5037498;28;20249;-80
2021/09/10 09:17:24;;;;;;;7.47;5.78;;;19.50;76.80;;;;;;5025014;28;20190;-83
2021/09/10 09:20:19;;;;;;;7.00;5.70;;;19.50;76.80;;;;;;5041312;28;20166;-81
2021/09/10 09:22:59;;;;;;;7.78;6.13;;;19.50;76.80;;;;;;5006214;28;20218;-82
2021/09/10 09:25:28;;;;;;;8.65;6.28;;;19.50;76.90;;;;;;5023260;28;20205;-80
2021/09/10 09:27:56;;;;;;;8.18;6.28;;;19.50;76.90;;;;;;5023364;28;20183;-80
2021/09/10 09:30:39;;;;;;;6.63;5.53;;;19.50;76.80;;;;;;5007954;28;20591;-80
2021/09/10 09:33:06;;;;;;;7.47;5.38;;;19.50;76.70;;;;;;5022985;28;20191;-80
2021/09/10 09:35:34;;;;;;;7.22;5.95;;;19.60;76.70;;;;;;5006963;28;20547;-81
2021/09/10 09:38:09;;;;;;;7.88;6.35;;;19.50;76.70;;;;;;5007813;28;20206;-79
2021/09/10 09:40:36;;;;;;;7.53;5.95;;;19.50;76.70;;;;;;5011504;28;20186;-80
2021/09/10 09:43:15;;;;;;;8.30;6.35;;;19.50;76.70;;;;;;5024837;28;20221;-80
2021/09/10 09:45:45;;;;;;;7.15;5.78;;;19.50;76.80;;;;;;5009984;28;20250;-80
2021/09/10 09:48:15;;;;;;;7.70;5.63;;;19.50;76.90;;;;;;5025413;28;20194;-79
2021/09/10 09:50:43;;;;;;;7.70;5.93;;;19.50;77.00;;;;;;5026566;28;20190;-80
2021/09/10 09:53:08;;;;;;;8.32;6.00;;;19.50;77.00;;;;;;5029274;28;20225;-80
2021/09/10 09:55:36;;;;;;;6.93;5.72;;;19.50;77.00;;;;;;5047034;28;20146;-79
2021/09/10 09:58:04;;;;;;;7.75;5.65;;;19.50;76.90;;;;;;5029722;28;20177;-80
2021/09/10 10:00:35;;;;;;;7.63;5.82;;;19.50;77.00;;;;;;5013375;28;20174;-80
2021/09/10 10:03:02;;;;;;;7.20;5.75;;;19.50;76.90;;;;;;5013725;28;20244;-79
2021/09/10 10:05:29;;;;;;;6.93;5.60;;;19.60;76.90;;;;;;4981365;28;20185;-79
2021/09/10 10:08:05;;;;;;;6.60;5.60;;;19.50;76.90;;;;;;5047619;28;20237;-79
2021/09/10 10:10:37;;;;;;;7.43;5.90;;;19.50;76.80;;;;;;5030162;28;20181;-79
2021/09/10 10:13:05;;;;;;;6.85;5.45;;;19.60;76.90;;;;;;5063390;28;20217;-79
2021/09/10 10:15:31;;;;;;;7.70;6.00;;;19.50;76.80;;;;;;5062296;28;20185;-80
2021/09/10 10:18:01;;;;;;;6.82;5.75;;;19.50;76.80;;;;;;5045715;28;20146;-79
2021/09/10 10:20:47;;;;;;;6.57;5.30;;;19.50;76.70;;;;;;5011789;28;20193;-78
2021/09/10 10:23:49;;;;;;;7.25;5.72;;;19.60;76.50;;;;;;5063210;28;20266;-78
2021/09/10 10:26:31;;;;;;;7.07;5.30;;;19.50;76.60;;;;;;5063670;28;20154;-79
2021/09/10 10:29:08;;;;;;;6.95;5.45;;;19.60;76.60;;;;;;5062021;28;20164;-78
2021/09/10 10:31:59;;;;;;;6.88;5.40;;;19.60;76.50;;;;;;5062354;28;20158;-80
2021/09/10 10:34:26;;;;;;;6.47;5.30;;;19.60;76.50;;;;;;5041955;28;20204;-78
2021/09/10 10:36:53;;;;;;;6.47;5.30;;;19.60;76.50;;;;;;5059820;28;20624;-82
2021/09/10 10:39:29;;;;;;;7.75;5.28;;;19.60;76.40;;;;;;5007330;28;20189;-79
2021/09/10 10:42:00;;;;;;;6.85;5.38;;;19.60;76.40;;;;;;5026264;28;20263;-79
2021/09/10 10:44:46;;;;;;;6.28;5.00;;;19.60;76.50;;;;;;5006343;28;20178;-81
2021/09/10 10:47:15;;;;;;;6.03;5.28;;;19.60;76.40;;;;;;5041916;28;20150;-80
2021/09/10 10:49:43;;;;;;;6.50;5.50;;;19.60;76.40;;;;;;5038454;28;20505;-81
2021/09/10 10:52:37;;;;;;;6.07;5.00;;;19.60;76.40;;;;;;5037746;28;20155;-81
2021/09/10 10:55:22;;;;;;;6.53;5.32;;;19.60;76.30;;;;;;5039029;28;20637;-80
2021/09/10 10:57:52;;;;;;;6.60;5.30;;;19.60;76.30;;;;;;5057206;28;20534;-82
2021/09/10 11:00:49;;;;;;;5.70;5.10;;;19.60;76.30;;;;;;5038940;28;20161;-82
2021/09/10 11:03:33;;;;;;;6.22;5.25;;;19.60;76.20;;;;;;5039135;28;20281;-80
2021/09/10 11:06:19;;;;;;;6.53;5.13;;;19.60;76.30;;;;;;5023182;28;20178;-81
2021/09/10 11:08:47;;;;;;;6.32;5.22;;;19.60;76.40;;;;;;5056579;28;20198;-81
2021/09/10 11:11:13;;;;;;;8.15;5.40;;;19.60;76.50;;;;;;5057456;28;20158;-80
2021/09/10 11:13:45;;;;;;;5.90;5.30;;;19.60;76.50;;;;;;5056115;28;20157;-82
2021/09/10 11:16:24;;;;;;;6.70;5.30;;;19.60;76.40;;;;;;5005900;28;20189;-79
2021/09/10 11:18:50;;;;;;;6.97;5.40;;;19.60;76.40;;;;;;5057364;28;20176;-81
2021/09/10 11:21:16;;;;;;;6.07;5.05;;;19.50;76.40;;;;;;5056268;28;20190;-80
2021/09/10 11:23:43;;;;;;;6.32;5.25;;;19.60;76.40;;;;;;5038415;28;20522;-79
2021/09/10 11:26:09;;;;;;;6.05;5.03;;;19.60;76.40;;;;;;5057074;28;20150;-81
2021/09/10 11:28:36;;;;;;;6.50;5.20;;;19.60;76.40;;;;;;5038819;28;20171;-79
2021/09/10 11:31:03;;;;;;;5.93;5.18;;;19.60;76.30;;;;;;5039200;28;20170;-81
2021/09/10 11:33:39;;;;;;;5.95;5.25;;;19.60;76.30;;;;;;5023301;28;20182;-79
2021/09/10 11:36:05;;;;;;;6.70;5.57;;;19.50;76.40;;;;;;5057914;28;20642;-80
2021/09/10 11:38:31;;;;;;;7.40;5.40;;;19.60;76.40;;;;;;5042882;28;20261;-80
2021/09/10 11:40:59;;;;;;;5.93;5.22;;;19.60;76.30;;;;;;5061050;28;20181;-79
2021/09/10 11:43:27;;;;;;;6.40;5.15;;;19.60;76.30;;;;;;5042047;28;20162;-81
2021/09/10 11:45:56;;;;;;;6.15;5.18;;;19.60;76.30;;;;;;5041370;28;20516;-80
2021/09/10 11:48:24;;;;;;;5.63;5.05;;;19.60;76.40;;;;;;5044246;28;20221;-80
2021/09/10 11:51:02;;;;;;;5.78;5.13;;;19.50;76.40;;;;;;5041042;28;20245;-81
2021/09/10 11:53:30;;;;;;;6.40;5.20;;;19.60;76.50;;;;;;5040587;28;20221;-81
2021/09/10 11:56:07;;;;;;;7.75;5.97;;;19.60;76.30;;;;;;5042823;28;20214;-79
2021/09/10 11:58:43;;;;;;;6.22;5.25;;;19.60;76.40;;;;;;5028102;28;20192;-79
2021/09/10 12:01:23;;;;;;;5.63;4.95;;;19.60;76.30;;;;;;5041852;28;20193;-80
2021/09/10 12:03:53;;;;;;;5.90;5.25;;;19.60;76.30;;;;;;5060646;28;20504;-79
2021/09/10 12:06:21;;;;;;;6.63;5.45;;;19.60;77.20;;;;;;5042227;28;20204;-80
2021/09/10 12:09:21;;;;;;;6.50;5.45;;;19.60;76.40;;;;;;5042324;28;20150;-80
2021/09/10 12:11:59;;;;;;;5.97;5.10;;;19.60;76.40;;;;;;5060983;28;20629;-81
2021/09/10 12:14:34;;;;;;;6.63;5.80;;;19.60;76.30;;;;;;5045909;28;20161;-80
2021/09/10 12:17:13;;;;;;;6.22;5.43;;;19.60;76.40;;;;;;5043689;28;20166;-80
2021/09/10 12:19:56;;;;;;;6.35;5.18;;;19.60;76.40;;;;;;5040633;28;20227;-80
2021/09/10 12:22:43;;;;;;;6.20;5.40;;;19.60;76.40;;;;;;5059718;28;20188;-82
2021/09/10 12:25:23;;;;;;;6.22;4.90;;;19.60;76.30;;;;;;4992515;28;20190;-80
2021/09/10 12:27:56;;;;;;;6.05;5.10;;;19.60;76.40;;;;;;5061145;28;20161;-80
2021/09/10 12:30:25;;;;;;;6.30;5.22;;;19.60;76.50;;;;;;4992620;28;20257;-79
2021/09/10 12:32:50;;;;;;;5.78;5.13;;;19.50;76.50;;;;;;5043152;28;20205;-79
2021/09/10 12:35:17;;;;;;;6.00;5.32;;;19.60;76.50;;;;;;5044354;28;20162;-80
2021/09/10 12:38:01;;;;;;;7.63;5.80;;;19.60;76.40;;;;;;5044571;28;20628;-80
2021/09/10 12:40:32;;;;;;;6.47;5.40;;;19.60;76.40;;;;;;5043923;28;20224;-82
2021/09/10 12:42:58;;;;;;;7.72;5.55;;;19.60;76.30;;;;;;5027434;28;20213;-80
2021/09/10 12:45:24;;;;;;;6.03;5.20;;;19.60;76.40;;;;;;5038486;28;20174;-80
2021/09/10 12:47:49;;;;;;;6.78;5.53;;;19.60;76.40;;;;;;5041587;28;20171;-80
2021/09/10 12:50:16;;;;;;;6.57;5.50;;;19.60;76.50;;;;;;5041653;28;20194;-79
2021/09/10 12:52:42;;;;;;;7.15;5.57;;;19.50;76.80;;;;;;5022034;28;20214;-80